Thunder radar more information blitzortung!


Radar de pluja more information rain snow radar


Visita la nostra xarxa de llocs de meteo:

Template documentation
and downloads

And another site



No particular awareness of the weather is required.    There are no Weather-warnings

Pagina Historial Weather Underground text

Diari Resum Agost 29, 2017 Unitats:  Imperial    Mètric   Tant
« Previous Dia
SegĂźent Dia »
Diari Setmana Mensual Anual Personalitzada
  Maxima: Minima: Media:
Temperatura: TemperatureC °F 21.1 °F 26.7 °F
Punt de rosada: DewpointC °F 12.2 °F 16.3 °F
Humitat: Humidity % 35 % 54 %
Wind Speed: WindSpeedKMH mph 0.0 mph 6.1 mph
RĂ fegues de vent: WindSpeedGustKMH mph - -
Vent:- - SW
Pression baro: PressurehPa in 1010.7 in -
Precipitacions: 0.0 in    
Historical Graphs
 
 
Dades de taula per Agost 29, 2017
Temps Temperatura Punt de rosada Pression baro Vent Wind Speed RĂ fegues de vent Humitat Rainfall Rate (Hourly)
TemperatureC °F DewpointC °F PressurehPa in Calm     Humidity % HourlyPrecipMM in
00:03 25.5 °F 18.2 °F 1012.8 in SW 5.6 mph 5.6 mph 64 % 0.0 in
00:05 23.2 °F 18.5 °F 1011.7 in WSW 1.6 mph 4.8 mph 75 % 0.0 in
00:15 23.2 °F 18.3 °F 1011.7 in WSW 3.2 mph 3.2 mph 74 % 0.0 in
00:25 23.4 °F 18.3 °F 1011.7 in WSW 3.2 mph 4.8 mph 73 % 0.0 in
00:35 23.6 °F 18.5 °F 1011.7 in West 3.2 mph 6.4 mph 73 % 0.0 in
00:45 23.6 °F 18.3 °F 1010.7 in West 8.0 mph 8.0 mph 72 % 0.0 in
00:55 23.7 °F 18.3 °F 1010.7 in West 4.8 mph 6.4 mph 72 % 0.0 in
01:05 23.6 °F 18.3 °F 1010.7 in WSW 3.2 mph 4.8 mph 72 % 0.0 in
01:25 23.5 °F 18.2 °F 1010.7 in WSW 1.6 mph 4.8 mph 72 % 0.0 in
01:35 23.3 °F 17.9 °F 1010.7 in Calm   3.2 mph 72 % 0.0 in
01:45 23.2 °F 17.9 °F 1010.7 in WSW 1.6 mph 3.2 mph 72 % 0.0 in
01:55 23.1 °F 17.8 °F 1010.7 in Calm   1.6 mph 72 % 0.0 in
02:05 22.9 °F 17.6 °F 1011.7 in WSW 1.6 mph 3.2 mph 72 % 0.0 in
02:15 22.7 °F 17.6 °F 1010.7 in SW 1.6 mph 3.2 mph 73 % 0.0 in
02:25 22.6 °F 17.5 °F 1010.7 in SW 1.6 mph 3.2 mph 73 % 0.0 in
02:35 22.5 °F 17.4 °F 1011.7 in Calm   3.2 mph 73 % 0.0 in
02:45 22.4 °F 17.3 °F 1011.7 in Calm   3.2 mph 73 % 0.0 in
02:55 22.2 °F 17.1 °F 1011.7 in SW 3.2 mph 3.2 mph 73 % 0.0 in
03:05 22.1 °F 17.2 °F 1011.7 in SW 1.6 mph 4.8 mph 74 % 0.0 in
03:15 21.9 °F 17.3 °F 1011.7 in SW 1.6 mph 4.8 mph 75 % 0.0 in
03:25 21.7 °F 17.1 °F 1011.7 in WSW 1.6 mph 3.2 mph 75 % 0.0 in
03:35 21.6 °F 17.0 °F 1011.7 in WSW 1.6 mph 3.2 mph 75 % 0.0 in
03:45 21.7 °F 17.1 °F 1011.7 in SW 1.6 mph 3.2 mph 75 % 0.0 in
03:55 21.9 °F 17.5 °F 1011.7 in SW 1.6 mph 3.2 mph 76 % 0.0 in
04:05 22.2 °F 17.3 °F 1011.7 in Calm   4.8 mph 74 % 0.0 in
04:15 22.3 °F 17.4 °F 1011.7 in WNW 1.6 mph 3.2 mph 74 % 0.0 in
04:25 22.4 °F 17.6 °F 1011.7 in SW 1.6 mph 3.2 mph 74 % 0.0 in
04:35 22.8 °F 17.7 °F 1011.7 in SW 1.6 mph 3.2 mph 73 % 0.0 in
04:45 23.4 °F 18.1 °F 1011.7 in SW 1.6 mph 3.2 mph 72 % 0.0 in
04:55 23.8 °F 18.2 °F 1011.7 in SW 1.6 mph 3.2 mph 71 % 0.0 in
09:58 26.0 °F 18.4 °F 1011.7 in SSE 4.7 mph 4.7 mph 63 % 0.0 in
09:59 26.2 °F 18.6 °F 1011.7 in SSE 5.6 mph 5.6 mph 63 % 0.0 in
10:01 26.3 °F 18.7 °F 1011.7 in SSE 3.2 mph 3.2 mph 63 % 0.0 in
10:06 26.5 °F 18.6 °F 1011.7 in ESE 5.6 mph 5.6 mph 62 % 0.0 in
10:11 27.1 °F 18.9 °F 1011.7 in SSE 3.7 mph 3.7 mph 61 % 0.0 in
10:16 27.1 °F 18.7 °F 1011.7 in SE 3.7 mph 3.7 mph 60 % 0.0 in
10:21 26.8 °F 18.7 °F 1011.7 in ENE 3.7 mph 3.7 mph 61 % 0.0 in
10:26 26.3 °F 18.2 °F 1011.7 in East 5.6 mph 5.6 mph 61 % 0.0 in
10:31 26.2 °F 18.1 °F 1011.7 in NE 3.7 mph 3.7 mph 61 % 0.0 in
10:36 26.3 °F 18.2 °F 1011.7 in NE 3.7 mph 3.7 mph 61 % 0.0 in
10:41 26.6 °F 18.4 °F 1011.7 in SW 3.2 mph 3.2 mph 61 % 0.0 in
10:46 26.9 °F 18.7 °F 1011.7 in WNW 3.7 mph 3.7 mph 61 % 0.0 in
10:51 27.1 °F 18.7 °F 1011.7 in ENE 6.1 mph 6.1 mph 60 % 0.0 in
10:56 27.6 °F 18.9 °F 1011.7 in NNE 3.7 mph 3.7 mph 59 % 0.0 in
11:01 27.8 °F 18.5 °F 1011.7 in East 3.9 mph 3.9 mph 57 % 0.0 in
11:06 27.9 °F 18.9 °F 1011.7 in ESE 1.9 mph 1.9 mph 58 % 0.0 in
11:11 28.1 °F 18.8 °F 1011.7 in ENE 7.4 mph 7.4 mph 57 % 0.0 in
11:16 28.0 °F 18.4 °F 1011.7 in ESE 3.7 mph 3.7 mph 56 % 0.0 in
11:21 28.5 °F 19.2 °F 1011.7 in SW 1.9 mph 1.9 mph 57 % 0.0 in
11:26 29.2 °F 19.2 °F 1011.7 in West 5.6 mph 5.6 mph 55 % 0.0 in
11:31 28.7 °F 19.1 °F 1011.7 in SW 7.4 mph 7.4 mph 56 % 0.0 in
11:36 29.0 °F 18.4 °F 1011.7 in SE 3.7 mph 3.7 mph 53 % 0.0 in
11:41 29.8 °F 18.9 °F 1011.7 in SW 5.8 mph 5.8 mph 52 % 0.0 in
11:42 29.9 °F 19.0 °F 1011.7 in South 5.6 mph 5.6 mph 52 % 0.0 in
11:47 30.3 °F 19.1 °F 1011.7 in SSW 3.7 mph 3.7 mph 51 % 0.0 in
11:52 30.0 °F 18.8 °F 1011.7 in South 7.4 mph 7.4 mph 51 % 0.0 in
12:02 30.1 °F 18.6 °F 1012.8 in WSW 5.6 mph 5.6 mph 50 % 0.0 in
12:07 30.1 °F 18.6 °F 1012.8 in SSW 5.6 mph 5.6 mph 50 % 0.0 in
12:12 30.2 °F 18.3 °F 1011.7 in NW 2.6 mph 2.6 mph 49 % 0.0 in
12:17 30.1 °F 18.2 °F 1011.7 in West 7.9 mph 7.9 mph 49 % 0.0 in
12:22 30.0 °F 17.8 °F 1011.7 in South 3.7 mph 3.7 mph 48 % 0.0 in
12:27 30.3 °F 18.1 °F 1011.7 in SW 3.7 mph 3.7 mph 48 % 0.0 in
12:32 30.5 °F 18.2 °F 1011.7 in West 3.7 mph 3.7 mph 48 % 0.0 in
12:37 30.9 °F 18.6 °F 1011.7 in SW 5.6 mph 5.6 mph 48 % 0.0 in
12:38 31.0 °F 18.4 °F 1011.7 in South 2.6 mph 2.6 mph 47 % 0.0 in
12:43 30.9 °F 18.6 °F 1012.8 in WSW 5.6 mph 5.6 mph 48 % 0.0 in
12:48 31.1 °F 18.1 °F 1012.8 in SSW 3.7 mph 3.7 mph 46 % 0.0 in
12:53 31.0 °F 18.4 °F 1012.8 in WSW 7.6 mph 7.6 mph 47 % 0.0 in
12:58 30.9 °F 18.3 °F 1011.7 in WSW 7.4 mph 7.4 mph 47 % 0.0 in
13:03 31.2 °F 18.2 °F 1011.7 in SW 5.6 mph 5.6 mph 46 % 0.0 in
13:08 31.3 °F 17.9 °F 1011.7 in ESE 3.7 mph 4.2 mph 45 % 0.0 in
13:13 32.2 °F 18.8 °F 1011.7 in South 5.6 mph 5.6 mph 45 % 0.0 in
13:18 32.0 °F 18.2 °F 1011.7 in SSE 7.4 mph 7.4 mph 44 % 0.0 in
13:23 32.2 °F 18.8 °F 1011.7 in SW 9.7 mph 9.7 mph 45 % 0.0 in
13:28 32.3 °F 18.5 °F 1010.7 in SSW 5.6 mph 5.6 mph 44 % 0.0 in
13:33 32.4 °F 18.6 °F 1010.7 in WSW 6.1 mph 6.1 mph 44 % 0.0 in
13:38 32.2 °F 18.4 °F 1010.7 in WSW 9.3 mph 9.3 mph 44 % 0.0 in
13:43 31.7 °F 17.6 °F 1010.7 in South 9.3 mph 9.3 mph 43 % 0.0 in
13:48 32.1 °F 17.9 °F 1010.7 in South 14.8 mph 14.8 mph 43 % 0.0 in
13:53 32.9 °F 18.7 °F 1010.7 in South 9.5 mph 9.5 mph 43 % 0.0 in
13:58 33.2 °F 17.8 °F 1011.7 in SE 9.3 mph 9.3 mph 40 % 0.0 in
14:03 32.7 °F 16.9 °F 1011.7 in SW 9.3 mph 9.5 mph 39 % 0.0 in
14:08 32.8 °F 17.0 °F 1011.7 in SW 13.0 mph 13.0 mph 39 % 0.0 in
14:13 32.5 °F 16.3 °F 1011.7 in West 18.5 mph 18.5 mph 38 % 0.0 in
14:18 31.9 °F 15.4 °F 1011.7 in WSW 22.2 mph 22.2 mph 37 % 0.0 in
14:23 31.6 °F 15.1 °F 1011.7 in SSW 14.8 mph 14.8 mph 37 % 0.0 in
14:28 31.6 °F 15.1 °F 1011.7 in South 5.6 mph 5.6 mph 37 % 0.0 in
14:33 31.7 °F 15.6 °F 1011.7 in SSW 7.4 mph 7.4 mph 38 % 0.0 in
14:38 31.8 °F 15.3 °F 1011.7 in SSW 6.4 mph 6.4 mph 37 % 0.0 in
14:43 31.7 °F 15.2 °F 1011.7 in SW 11.1 mph 11.1 mph 37 % 0.0 in
14:48 31.6 °F 15.1 °F 1011.7 in ESE 10.3 mph 10.3 mph 37 % 0.0 in
14:53 31.6 °F 15.1 °F 1011.7 in SW 7.4 mph 7.4 mph 37 % 0.0 in
14:58 31.3 °F 14.9 °F 1012.8 in SSW 14.8 mph 14.8 mph 37 % 0.0 in
15:03 31.1 °F 14.3 °F 1012.8 in WSW 13.0 mph 13.0 mph 36 % 0.0 in
15:08 31.2 °F 14.3 °F 1012.8 in SSW 9.3 mph 9.3 mph 36 % 0.0 in
15:13 31.1 °F 14.3 °F 1012.8 in SW 10.3 mph 10.3 mph 36 % 0.0 in
15:18 31.2 °F 14.3 °F 1012.8 in SSW 11.1 mph 11.1 mph 36 % 0.0 in
15:23 31.2 °F 14.3 °F 1012.8 in SW 13.0 mph 13.0 mph 36 % 0.0 in
15:28 31.3 °F 14.0 °F 1012.8 in WSW 11.1 mph 11.1 mph 35 % 0.0 in
15:33 31.1 °F 14.3 °F 1012.8 in SSW 20.4 mph 20.4 mph 36 % 0.0 in
15:38 30.9 °F 14.9 °F 1012.8 in SSW 9.5 mph 9.5 mph 38 % 0.0 in
15:43 30.7 °F 15.2 °F 1012.8 in South 11.1 mph 11.1 mph 39 % 0.0 in
15:48 30.5 °F 15.4 °F 1012.8 in SSW 13.0 mph 13.0 mph 40 % 0.0 in
15:53 30.6 °F 15.4 °F 1012.8 in SSW 11.1 mph 11.1 mph 40 % 0.0 in
15:58 30.4 °F 15.3 °F 1012.8 in WSW 9.3 mph 9.3 mph 40 % 0.0 in
16:03 30.5 °F 15.8 °F 1012.8 in WSW 10.0 mph 10.0 mph 41 % 0.0 in
16:08 30.2 °F 15.1 °F 1012.8 in SSW 13.0 mph 13.0 mph 40 % 0.0 in
16:13 30.0 °F 14.9 °F 1012.8 in WSW 11.1 mph 11.1 mph 40 % 0.0 in
16:18 29.8 °F 15.1 °F 1012.8 in WSW 13.0 mph 13.0 mph 41 % 0.0 in
16:23 29.7 °F 15.1 °F 1012.8 in SSE 10.3 mph 10.3 mph 41 % 0.0 in
16:28 29.6 °F 15.3 °F 1011.7 in SSW 9.3 mph 9.3 mph 42 % 0.0 in
16:33 29.5 °F 15.2 °F 1011.7 in SW 7.4 mph 7.4 mph 42 % 0.0 in
16:34 29.5 °F 15.2 °F 1011.7 in WSW 10.3 mph 10.3 mph 42 % 0.0 in
16:39 29.3 °F 15.1 °F 1011.7 in WSW 16.7 mph 16.7 mph 42 % 0.0 in
16:44 29.2 °F 14.9 °F 1011.7 in WSW 7.4 mph 7.4 mph 42 % 0.0 in
16:49 29.2 °F 14.9 °F 1011.7 in SW 9.5 mph 9.5 mph 42 % 0.0 in
16:54 29.0 °F 14.8 °F 1011.7 in WSW 16.7 mph 16.7 mph 42 % 0.0 in
16:59 28.9 °F 15.1 °F 1011.7 in WSW 9.3 mph 9.3 mph 43 % 0.0 in
17:04 28.9 °F 15.1 °F 1011.7 in South 9.3 mph 9.3 mph 43 % 0.0 in
17:09 28.9 °F 15.4 °F 1011.7 in SSW 9.3 mph 9.5 mph 44 % 0.0 in
17:14 28.8 °F 15.3 °F 1011.7 in West 9.3 mph 9.3 mph 44 % 0.0 in
17:19 28.7 °F 15.2 °F 1011.7 in SSW 11.1 mph 11.1 mph 44 % 0.0 in
17:24 28.5 °F 15.4 °F 1012.8 in WSW 16.7 mph 16.7 mph 45 % 0.0 in
17:29 28.1 °F 15.4 °F 1012.8 in SW 20.4 mph 20.4 mph 46 % 0.0 in
17:34 27.6 °F 15.9 °F 1012.8 in SW 17.5 mph 17.5 mph 49 % 0.0 in
17:39 27.2 °F 16.2 °F 1013.8 in SW 16.7 mph 16.7 mph 51 % 0.0 in
17:44 26.4 °F 16.6 °F 1013.8 in South 11.1 mph 11.1 mph 55 % 0.0 in
17:49 25.8 °F 16.9 °F 1013.8 in SW 16.7 mph 16.7 mph 58 % 0.0 in
17:54 25.5 °F 17.2 °F 1013.8 in SW 12.6 mph 12.6 mph 60 % 0.0 in
17:59 25.4 °F 17.6 °F 1013.8 in WSW 11.1 mph 11.1 mph 62 % 0.0 in
18:04 25.4 °F 17.6 °F 1013.8 in SW 14.8 mph 14.8 mph 62 % 0.0 in
18:09 25.2 °F 17.9 °F 1013.8 in South 13.0 mph 13.0 mph 64 % 0.0 in
18:14 25.0 °F 17.4 °F 1013.8 in SW 9.0 mph 9.0 mph 63 % 0.0 in
18:19 25.0 °F 17.7 °F 1013.8 in SW 9.3 mph 9.3 mph 64 % 0.0 in
18:24 25.1 °F 17.6 °F 1013.8 in West 9.3 mph 9.3 mph 63 % 0.0 in
18:29 25.1 °F 17.6 °F 1013.8 in SW 5.6 mph 5.6 mph 63 % 0.0 in
18:34 25.2 °F 17.7 °F 1013.8 in SW 7.4 mph 7.4 mph 63 % 0.0 in
18:39 25.4 °F 17.6 °F 1012.8 in West 7.4 mph 7.4 mph 62 % 0.0 in
18:44 25.4 °F 17.3 °F 1012.8 in WSW 7.4 mph 7.4 mph 61 % 0.0 in
18:49 25.5 °F 17.2 °F 1012.8 in West 5.6 mph 5.6 mph 60 % 0.0 in
18:54 25.6 °F 17.3 °F 1012.8 in WSW 3.2 mph 3.2 mph 60 % 0.0 in
18:59 25.6 °F 17.3 °F 1012.8 in SW 3.7 mph 3.7 mph 60 % 0.0 in
19:04 25.6 °F 16.7 °F 1012.8 in WNW 5.6 mph 5.6 mph 58 % 0.0 in
19:09 25.7 °F 16.6 °F 1012.8 in West 3.9 mph 3.9 mph 57 % 0.0 in
19:14 25.8 °F 16.3 °F 1012.8 in West 3.7 mph 3.7 mph 56 % 0.0 in
19:15 25.8 °F 16.3 °F 1012.8 in Calm   3.2 mph 56 % 0.0 in
19:20 26.0 °F 16.3 °F 1012.8 in West 1.9 mph   55 % 0.0 in
19:25 26.0 °F 16.3 °F 1011.7 in SW 5.8 mph 5.8 mph 55 % 0.0 in
19:30 25.9 °F 16.2 °F 1011.7 in Calm   4.8 mph 55 % 0.0 in
19:35 25.9 °F 15.9 °F 1011.7 in SW 1.6 mph 3.2 mph 54 % 0.0 in
19:40 25.9 °F 15.9 °F 1011.7 in SW 3.2 mph 4.8 mph 54 % 0.0 in
19:45 25.8 °F 15.8 °F 1011.7 in WSW 3.7 mph 3.7 mph 54 % 0.0 in
19:50 25.8 °F 15.8 °F 1011.7 in Calm     54 % 0.0 in
19:55 25.7 °F 15.7 °F 1012.8 in Calm     54 % 0.0 in
20:00 25.7 °F 15.7 °F 1012.8 in Calm     54 % 0.0 in
20:05 25.6 °F 15.6 °F 1012.8 in NNE 2.3 mph   54 % 0.0 in
20:10 25.6 °F 15.3 °F 1011.7 in South 2.6 mph   53 % 0.0 in
20:15 25.6 °F 15.3 °F 1011.7 in South 1.9 mph 2.3 mph 53 % 0.0 in
20:20 25.5 °F 15.5 °F 1011.7 in Calm     54 % 0.0 in
20:25 25.4 °F 15.4 °F 1012.8 in SW 3.7 mph 3.7 mph 54 % 0.0 in
20:30 25.3 °F 15.3 °F 1012.8 in SW 2.3 mph 2.3 mph 54 % 0.0 in
20:35 25.1 °F 15.1 °F 1012.8 in WSW 3.7 mph 3.7 mph 54 % 0.0 in
20:40 25.0 °F 15.1 °F 1012.8 in WSW 3.2 mph 3.2 mph 54 % 0.0 in
20:45 23.0 °F 12.9 °F 1013.8 in WSW 3.2 mph 4.8 mph 53 % 0.0 in
20:50 24.9 °F 15.2 °F 1012.8 in WSW 3.7 mph 3.7 mph 55 % 0.0 in
20:55 24.9 °F 15.2 °F 1013.8 in SW 3.7 mph 3.7 mph 55 % 0.0 in
21:00 24.8 °F 15.2 °F 1013.8 in SW 3.9 mph 3.9 mph 55 % 0.0 in
21:05 22.6 °F 12.8 °F 1012.8 in WSW 1.6 mph 3.2 mph 54 % 0.0 in
21:10 24.6 °F 15.2 °F 1013.8 in WSW 4.2 mph 4.2 mph 56 % 0.0 in
21:15 24.6 °F 15.2 °F 1013.8 in SW 3.9 mph 3.9 mph 56 % 0.0 in
21:20 24.6 °F 15.2 °F 1013.8 in SW 3.9 mph 3.9 mph 56 % 0.0 in
21:25 24.5 °F 15.2 °F 1013.8 in SW 5.6 mph 5.6 mph 56 % 0.0 in
21:30 24.5 °F 15.2 °F 1013.8 in West 3.7 mph 3.7 mph 56 % 0.0 in
21:35 24.5 °F 15.2 °F 1013.8 in WSW 3.7 mph 3.7 mph 56 % 0.0 in
21:40 24.5 °F 14.9 °F 1013.8 in WSW 4.2 mph 4.2 mph 55 % 0.0 in
21:45 24.5 °F 14.9 °F 1013.8 in Calm     55 % 0.0 in
21:55 24.6 °F 14.7 °F 1012.8 in SW 3.7 mph 3.7 mph 54 % 0.0 in
22:00 24.6 °F 14.7 °F 1012.8 in WSW 4.2 mph 4.2 mph 54 % 0.0 in
22:05 24.7 °F 14.5 °F 1012.8 in West 5.6 mph 5.6 mph 53 % 0.0 in
22:10 24.8 °F 14.6 °F 1013.8 in West 4.7 mph 4.7 mph 53 % 0.0 in
22:15 24.7 °F 14.2 °F 1013.8 in SW 5.0 mph 5.0 mph 52 % 0.0 in
22:20 24.6 °F 14.1 °F 1013.8 in SW 5.6 mph 5.6 mph 52 % 0.0 in
22:25 24.5 °F 14.0 °F 1013.8 in South 4.2 mph 4.2 mph 52 % 0.0 in
22:30 24.3 °F 14.1 °F 1013.8 in West 7.4 mph 7.4 mph 53 % 0.0 in
22:35 24.2 °F 14.0 °F 1013.8 in WSW 5.6 mph 5.6 mph 53 % 0.0 in
22:40 24.3 °F 14.1 °F 1013.8 in SW 3.9 mph 3.9 mph 53 % 0.0 in
22:45 24.2 °F 14.0 °F 1013.8 in SW 3.7 mph 3.7 mph 53 % 0.0 in
22:50 24.1 °F 13.9 °F 1013.8 in SW 3.9 mph 3.9 mph 53 % 0.0 in
22:55 24.0 °F 13.8 °F 1013.8 in SW 3.7 mph 3.7 mph 53 % 0.0 in
23:00 23.9 °F 13.7 °F 1013.8 in WSW 2.3 mph 2.3 mph 53 % 0.0 in
23:01 23.9 °F 13.7 °F 1013.8 in SW 3.7 mph 3.7 mph 53 % 0.0 in
23:05 21.9 °F 12.2 °F 1013.8 in SW 4.8 mph 6.4 mph 54 % 0.0 in
23:06 24.1 °F 13.9 °F 1013.8 in SW 5.6 mph 5.6 mph 53 % 0.0 in
23:11 23.8 °F 13.7 °F 1013.8 in SW 3.7 mph 3.7 mph 53 % 0.0 in
23:15 22.2 °F 12.2 °F 1014.8 in SW 4.8 mph 8.0 mph 53 % 0.0 in
23:16 23.6 °F 13.4 °F 1013.8 in WSW 3.9 mph 3.9 mph 53 % 0.0 in
23:21 23.5 °F 13.4 °F 1013.8 in WSW 1.9 mph 1.9 mph 53 % 0.0 in
23:25 23.0 °F 12.3 °F 1014.8 in SW 9.7 mph 16.1 mph 51 % 0.0 in
23:26 23.5 °F 13.4 °F 1013.8 in WSW 1.9 mph   53 % 0.0 in
23:31 23.5 °F 13.1 °F 1013.8 in Calm     52 % 0.0 in
23:35 22.7 °F 12.6 °F 1015.8 in SW 12.9 mph 27.4 mph 53 % 0.0 in
23:36 23.6 °F 13.2 °F 1013.8 in WSW 3.7 mph 3.7 mph 52 % 0.0 in
23:41 23.5 °F 13.4 °F 1014.8 in SW 5.6 mph 5.6 mph 53 % 0.0 in
23:45 22.1 °F 12.9 °F 1015.8 in SW 11.3 mph 16.1 mph 56 % 0.0 in
23:46 23.5 °F 13.4 °F 1014.8 in SW 3.9 mph 3.9 mph 53 % 0.0 in
23:51 23.4 °F 13.3 °F 1014.8 in SW 3.7 mph 3.7 mph 53 % 0.0 in
23:55 21.1 °F 13.8 °F 1015.8 in WSW 4.8 mph 12.9 mph 63 % 0.0 in
23:56 23.3 °F 13.2 °F 1013.8 in WSW 3.7 mph 3.7 mph 53 % 0.0 in
Meteo Sesrovires
Elogis d' Weather Underground - 1.5 mb

Guio original per  Jim McMurry - jmcmurry@mwt.net Adaptat per a la plantilla per  Wim van der Kuil - Leuven-Template.eu

Trobareu la nostra informacio del temps tambe a:

Weather Underground

AWEKAS